sensor_id;sensor_type;location;lat;lon;timestamp;pressure;altitude;pressure_sealevel;temperature;humidity
32759;BME280;19125;52.360;9.974;2024-03-07T00:01:14;88062.94;;;-145.17;61.69
32759;BME280;19125;52.360;9.974;2024-03-07T00:03:39;88122.50;;;-145.17;61.91
32759;BME280;19125;52.360;9.974;2024-03-07T00:06:05;88124.47;;;-145.17;61.95
32759;BME280;19125;52.360;9.974;2024-03-07T00:08:30;88152.28;;;-145.17;61.60
32759;BME280;19125;52.360;9.974;2024-03-07T00:10:56;88156.25;;;-145.17;61.96
32759;BME280;19125;52.360;9.974;2024-03-07T00:13:21;88197.94;;;-145.17;62.08
32759;BME280;19125;52.360;9.974;2024-03-07T00:15:46;88209.84;;;-145.17;61.82
32759;BME280;19125;52.360;9.974;2024-03-07T00:18:12;88201.91;;;-145.17;62.35
32759;BME280;19125;52.360;9.974;2024-03-07T00:20:37;88237.66;;;-145.17;62.21
32759;BME280;19125;52.360;9.974;2024-03-07T00:23:03;88275.38;;;-145.17;62.23
32759;BME280;19125;52.360;9.974;2024-03-07T00:25:28;88307.13;;;-145.17;62.26
32759;BME280;19125;52.360;9.974;2024-03-07T00:27:56;88309.13;;;-145.17;62.79
32759;BME280;19125;52.360;9.974;2024-03-07T00:30:27;88311.09;;;-145.17;62.76
32759;BME280;19125;52.360;9.974;2024-03-07T00:32:54;88311.09;;;-145.17;63.30
32759;BME280;19125;52.360;9.974;2024-03-07T00:35:21;88342.88;;;-145.17;63.14
32759;BME280;19125;52.360;9.974;2024-03-07T00:37:47;88372.66;;;-145.17;63.29
32759;BME280;19125;52.360;9.974;2024-03-07T00:40:12;88446.13;;;-145.17;63.33
32759;BME280;19125;52.360;9.974;2024-03-07T00:42:39;88442.16;;;-145.17;63.15
32759;BME280;19125;52.360;9.974;2024-03-07T00:45:05;88483.84;;;-145.17;63.35
32759;BME280;19125;52.360;9.974;2024-03-07T00:47:32;88458.03;;;-145.17;63.79
32759;BME280;19125;52.360;9.974;2024-03-07T00:49:57;88465.97;;;-145.17;63.68
32759;BME280;19125;52.360;9.974;2024-03-07T00:52:23;88471.94;;;-145.17;63.71
32759;BME280;19125;52.360;9.974;2024-03-07T00:54:48;88499.72;;;-145.17;63.77
32759;BME280;19125;52.360;9.974;2024-03-07T00:57:14;88507.66;;;-145.17;64.16
32759;BME280;19125;52.360;9.974;2024-03-07T00:59:40;88523.56;;;-145.17;63.98
32759;BME280;19125;52.360;9.974;2024-03-07T01:02:05;88551.34;;;-145.17;64.20
32759;BME280;19125;52.360;9.974;2024-03-07T01:04:32;88533.47;;;-145.17;64.46
32759;BME280;19125;52.360;9.974;2024-03-07T01:06:58;88601.00;;;-145.17;64.77
32759;BME280;19125;52.360;9.974;2024-03-07T01:09:24;88626.81;;;-145.17;64.28
32759;BME280;19125;52.360;9.974;2024-03-07T01:11:50;88608.94;;;-145.17;64.33
32759;BME280;19125;52.360;9.974;2024-03-07T01:14:15;88616.88;;;-145.17;64.47
32759;BME280;19125;52.360;9.974;2024-03-07T01:16:41;88672.47;;;-145.17;64.90
32759;BME280;19125;52.360;9.974;2024-03-07T01:19:06;88664.53;;;-145.17;65.35
32759;BME280;19125;52.360;9.974;2024-03-07T01:21:33;88680.41;;;-145.17;65.25
32759;BME280;19125;52.360;9.974;2024-03-07T01:23:59;88682.41;;;-145.17;65.30
32759;BME280;19125;52.360;9.974;2024-03-07T01:26:28;88700.28;;;-145.17;65.12
32759;BME280;19125;52.360;9.974;2024-03-07T01:28:55;88722.13;;;-145.17;65.18
32759;BME280;19125;52.360;9.974;2024-03-07T01:31:22;88783.66;;;-145.17;66.05
32759;BME280;19125;52.360;9.974;2024-03-07T01:33:47;88763.81;;;-145.17;65.70
32759;BME280;19125;52.360;9.974;2024-03-07T01:36:12;88763.81;;;-145.17;65.99
32759;BME280;19125;52.360;9.974;2024-03-07T01:38:38;88775.72;;;-145.17;66.02
32759;BME280;19125;52.360;9.974;2024-03-07T01:41:03;88789.63;;;-145.17;66.00
32759;BME280;19125;52.360;9.974;2024-03-07T01:43:29;88801.53;;;-145.17;66.59
32759;BME280;19125;52.360;9.974;2024-03-07T01:45:57;88823.38;;;-145.17;66.49
32759;BME280;19125;52.360;9.974;2024-03-07T01:48:27;88793.59;;;-145.17;66.33
32759;BME280;19125;52.360;9.974;2024-03-07T01:50:54;88807.50;;;-145.17;66.33
32759;BME280;19125;52.360;9.974;2024-03-07T01:53:21;88809.47;;;-145.17;66.72
32759;BME280;19125;52.360;9.974;2024-03-07T01:55:47;88795.56;;;-145.17;66.64
32759;BME280;19125;52.360;9.974;2024-03-07T01:58:14;88805.50;;;-145.17;66.86
32759;BME280;19125;52.360;9.974;2024-03-07T02:00:43;88809.47;;;-145.17;66.60
32759;BME280;19125;52.360;9.974;2024-03-07T02:03:09;88787.63;;;-145.17;66.74
32759;BME280;19125;52.360;9.974;2024-03-07T02:05:34;88787.63;;;-145.17;67.27
32759;BME280;19125;52.360;9.974;2024-03-07T02:07:59;88771.75;;;-145.17;67.27
32759;BME280;19125;52.360;9.974;2024-03-07T02:10:27;88755.88;;;-145.17;67.31
32759;BME280;19125;52.360;9.974;2024-03-07T02:12:52;88724.09;;;-145.17;67.46
32759;BME280;19125;52.360;9.974;2024-03-07T02:15:17;88732.03;;;-145.17;67.40
32759;BME280;19125;52.360;9.974;2024-03-07T02:17:43;88662.53;;;-145.17;67.81
32759;BME280;19125;52.360;9.974;2024-03-07T02:20:09;88668.50;;;-145.17;67.99
32759;BME280;19125;52.360;9.974;2024-03-07T02:22:36;88628.78;;;-145.17;67.66
32759;BME280;19125;52.360;9.974;2024-03-07T02:25:02;88545.41;;;-145.17;67.83
32759;BME280;19125;52.360;9.974;2024-03-07T02:27:27;88525.53;;;-145.17;67.84
32759;BME280;19125;52.360;9.974;2024-03-07T02:29:53;88454.06;;;-145.17;67.86
32759;BME280;19125;52.360;9.974;2024-03-07T02:32:18;88362.72;;;-145.17;68.25
32759;BME280;19125;52.360;9.974;2024-03-07T02:34:43;88309.13;;;-145.17;68.30
32759;BME280;19125;52.360;9.974;2024-03-07T02:37:09;88251.53;;;-145.17;68.34
32759;BME280;19125;52.360;9.974;2024-03-07T02:39:37;88128.44;;;-145.17;68.24
32759;BME280;19125;52.360;9.974;2024-03-07T02:42:03;87989.47;;;-145.17;68.72
32759;BME280;19125;52.360;9.974;2024-03-07T02:44:28;87838.59;;;-145.17;68.67
32759;BME280;19125;52.360;9.974;2024-03-07T02:46:54;87695.66;;;-145.17;68.63
32759;BME280;19125;52.360;9.974;2024-03-07T02:49:20;87528.91;;;-145.17;68.83
32759;BME280;19125;52.360;9.974;2024-03-07T02:51:46;87346.31;;;-145.17;69.00
32759;BME280;19125;52.360;9.974;2024-03-07T02:54:12;87133.91;;;-145.17;68.95
32759;BME280;19125;52.360;9.974;2024-03-07T02:56:37;86973.16;;;-145.17;69.34
32759;BME280;19125;52.360;9.974;2024-03-07T02:59:03;86715.13;;;-145.17;68.67
32759;BME280;19125;52.360;9.974;2024-03-07T03:01:28;86445.25;;;-145.17;69.23
32759;BME280;19125;52.360;9.974;2024-03-07T03:03:53;86226.94;;;-145.17;68.99
32759;BME280;19125;52.360;9.974;2024-03-07T03:06:19;86113.84;;;-145.17;69.14
32759;BME280;19125;52.360;9.974;2024-03-07T03:08:47;85923.34;;;-145.17;69.36
32759;BME280;19125;52.360;9.974;2024-03-07T03:11:13;85921.34;;;-145.17;69.19
32759;BME280;19125;52.360;9.974;2024-03-07T03:13:42;85901.53;;;-145.17;69.42
32759;BME280;19125;52.360;9.974;2024-03-07T03:16:08;85873.75;;;-145.17;69.13
32759;BME280;19125;52.360;9.974;2024-03-07T03:18:34;85778.50;;;-145.17;68.72
32759;BME280;19125;52.360;9.974;2024-03-07T03:21:00;85780.47;;;-145.17;68.81
32759;BME280;19125;52.360;9.974;2024-03-07T03:23:27;85667.38;;;-145.17;69.45
32759;BME280;19125;52.360;9.974;2024-03-07T03:25:52;85576.13;;;-145.17;69.31
32759;BME280;19125;52.360;9.974;2024-03-07T03:28:19;85540.41;;;-145.17;69.30
32759;BME280;19125;52.360;9.974;2024-03-07T03:30:46;85322.16;;;-145.17;69.41
32759;BME280;19125;52.360;9.974;2024-03-07T03:33:12;85242.81;;;-145.17;69.04
32759;BME280;19125;52.360;9.974;2024-03-07T03:35:38;85209.06;;;-145.17;69.12
32759;BME280;19125;52.360;9.974;2024-03-07T03:38:03;84899.59;;;-145.17;69.31
32759;BME280;19125;52.360;9.974;2024-03-07T03:40:29;84611.97;;;-145.17;69.40
32759;BME280;19125;52.360;9.974;2024-03-07T03:42:54;84254.94;;;-145.17;69.50
32759;BME280;19125;52.360;9.974;2024-03-07T03:45:20;84171.63;;;-145.17;69.74
32759;BME280;19125;52.360;9.974;2024-03-07T03:47:45;84096.25;;;-145.17;69.75
32759;BME280;19125;52.360;9.974;2024-03-07T03:50:12;84096.25;;;-145.17;69.36
32759;BME280;19125;52.360;9.974;2024-03-07T03:52:39;83949.50;;;-145.17;69.63
32759;BME280;19125;52.360;9.974;2024-03-07T03:55:05;83891.97;;;-145.17;69.45
32759;BME280;19125;52.360;9.974;2024-03-07T03:57:38;83562.78;;;-145.17;69.38
32759;BME280;19125;52.360;9.974;2024-03-07T04:00:04;83505.28;;;-145.17;69.63
32759;BME280;19125;52.360;9.974;2024-03-07T04:02:38;83293.09;;;-145.17;69.34
32759;BME280;19125;52.360;9.974;2024-03-07T04:05:04;82741.88;;;-145.17;69.94
32759;BME280;19125;52.360;9.974;2024-03-07T04:07:29;82658.59;;;-145.17;69.39
32759;BME280;19125;52.360;9.974;2024-03-07T04:09:56;83128.50;;;-145.17;69.18
32759;BME280;19125;52.360;9.974;2024-03-07T04:12:23;83193.94;;;-145.17;69.76
32759;BME280;19125;52.360;9.974;2024-03-07T04:14:48;83346.63;;;-145.17;69.83
32759;BME280;19125;52.360;9.974;2024-03-07T04:17:14;83263.34;;;-145.17;69.63
32759;BME280;19125;52.360;9.974;2024-03-07T04:19:40;83172.13;;;-145.17;69.69
32759;BME280;19125;52.360;9.974;2024-03-07T04:22:06;82773.59;;;-145.17;69.32
32759;BME280;19125;52.360;9.974;2024-03-07T04:24:36;82747.81;;;-145.17;69.58
32759;BME280;19125;52.360;9.974;2024-03-07T04:27:02;82785.47;;;-145.17;69.67
32759;BME280;19125;52.360;9.974;2024-03-07T04:29:34;82837.03;;;-145.17;69.42
32759;BME280;19125;52.360;9.974;2024-03-07T04:32:00;83005.56;;;-145.17;69.24
32759;BME280;19125;52.360;9.974;2024-03-07T04:34:29;82811.25;;;-145.17;69.81
32759;BME280;19125;52.360;9.974;2024-03-07T04:36:58;82783.50;;;-145.17;69.61
32759;BME280;19125;52.360;9.974;2024-03-07T04:39:25;82652.66;;;-145.17;69.34
32759;BME280;19125;52.360;9.974;2024-03-07T04:44:47;81825.97;;;-145.17;69.51
32759;BME280;19125;52.360;9.974;2024-03-07T04:47:12;81251.16;;;-145.17;69.80
32759;BME280;19125;52.360;9.974;2024-03-07T04:49:37;80959.81;;;-145.17;69.49
32759;BME280;19125;52.360;9.974;2024-03-07T04:52:03;80496.09;;;-145.17;69.89
32759;BME280;19125;52.360;9.974;2024-03-07T04:54:30;80232.56;;;-145.17;70.11
32759;BME280;19125;52.360;9.974;2024-03-07T04:56:59;79626.28;;;-145.17;69.69
32759;BME280;19125;52.360;9.974;2024-03-07T04:59:24;79008.22;;;-145.17;70.19
32759;BME280;19125;52.360;9.974;2024-03-07T05:01:50;78388.28;;;-145.17;70.05
32759;BME280;19125;52.360;9.974;2024-03-07T05:04:16;77982.28;;;-145.17;70.24
32759;BME280;19125;52.360;9.974;2024-03-07T05:06:42;77019.97;;;-145.17;70.17
32759;BME280;19125;52.360;9.974;2024-03-07T05:09:09;76079.63;;;-145.17;70.52
32759;BME280;19125;52.360;9.974;2024-03-07T05:11:36;75086.09;;;-145.17;69.96
32759;BME280;19125;52.360;9.974;2024-03-07T05:14:02;74189.75;;;-145.17;70.17
32759;BME280;19125;52.360;9.974;2024-03-07T05:16:28;72977.16;;;-145.17;70.53
32759;BME280;19125;52.360;9.974;2024-03-07T05:18:55;71308.19;;;-145.17;70.38
32759;BME280;19125;52.360;9.974;2024-03-07T05:21:23;69311.88;;;-145.17;70.73
32759;BME280;19125;52.360;9.974;2024-03-07T05:23:58;67044.03;;;-145.17;71.02
32759;BME280;19125;52.360;9.974;2024-03-07T05:26:24;65274.88;;;-145.17;71.23
32759;BME280;19125;52.360;9.974;2024-03-07T05:28:51;62748.91;;;-145.17;70.83
32759;BME280;19125;52.360;9.974;2024-03-07T05:31:17;60729.28;;;-145.17;71.05
32759;BME280;19125;52.360;9.974;2024-03-07T05:33:43;58206.19;;;-145.17;71.52
32759;BME280;19125;52.360;9.974;2024-03-07T05:36:09;55936.78;;;-145.17;71.34
32759;BME280;19125;52.360;9.974;2024-03-07T05:38:44;53668.66;;;-145.17;71.55
32759;BME280;19125;52.360;9.974;2024-03-07T05:41:10;51653.66;;;-145.17;71.89
32759;BME280;19125;52.360;9.974;2024-03-07T05:43:40;49388.00;;;-145.17;71.65
32759;BME280;19125;52.360;9.974;2024-03-07T05:46:06;47375.16;;;-145.17;72.41
32759;BME280;19125;52.360;9.974;2024-03-07T05:48:36;45614.78;;;-145.17;72.43
32759;BME280;19125;52.360;9.974;2024-03-07T05:51:01;43603.84;;;-145.17;72.36
32759;BME280;19125;52.360;9.974;2024-03-07T05:53:26;41845.16;;;-145.17;72.51
32759;BME280;19125;52.360;9.974;2024-03-07T05:55:52;40589.41;;;-145.17;72.64
32759;BME280;19125;52.360;9.974;2024-03-07T05:58:17;39334.09;;;-145.17;72.76
32759;BME280;19125;52.360;9.974;2024-03-07T06:00:44;38079.16;;;-145.17;72.94
32759;BME280;19125;52.360;9.974;2024-03-07T06:03:17;37075.50;;;-145.17;73.07
32759;BME280;19125;52.360;9.974;2024-03-07T06:05:48;35821.28;;;-145.17;72.53
32759;BME280;19125;52.360;9.974;2024-03-07T06:08:20;34818.19;;;-145.17;73.37
32759;BME280;19125;52.360;9.974;2024-03-07T06:10:46;34066.06;;;-145.17;73.15
32759;BME280;19125;52.360;9.974;2024-03-07T06:13:14;33063.41;;;-145.17;73.38
32759;BME280;19125;52.360;9.974;2024-03-07T06:15:42;32061.03;;;-145.17;73.50
32759;BME280;19125;52.360;9.974;2024-03-07T06:18:08;31309.41;;;-145.17;73.39
32759;BME280;19125;52.360;9.974;2024-03-07T06:20:34;30808.44;;;-145.17;73.41
32759;BME280;19125;52.360;9.974;2024-03-07T06:23:00;30057.06;;;-145.17;73.46
32759;BME280;19125;52.360;9.974;2024-03-07T06:25:29;29556.22;;;-145.17;73.58
32759;BME280;19125;52.360;9.974;2024-03-07T06:28:15;29055.44;;;-145.17;73.46
32759;BME280;19125;52.360;9.974;2024-03-07T06:30:42;28304.41;;;-145.17;73.46
32759;BME280;19125;52.360;9.974;2024-03-07T06:33:09;27053.00;;;-145.17;73.61
32759;BME280;19125;52.360;9.974;2024-03-07T06:35:35;26302.34;;;-145.17;73.46
32759;BME280;19125;52.360;9.974;2024-03-07T06:38:02;25802.00;;;-145.17;73.66
32759;BME280;19125;52.360;9.974;2024-03-07T06:40:28;25551.84;;;-145.17;73.85
32759;BME280;19125;52.360;9.974;2024-03-07T06:42:55;25301.69;;;-145.17;73.52
32759;BME280;19125;52.360;9.974;2024-03-07T06:45:20;24801.47;;;-145.17;73.57
32759;BME280;19125;52.360;9.974;2024-03-07T06:47:46;24051.25;;;-145.17;73.52
32759;BME280;19125;52.360;9.974;2024-03-07T06:50:12;23551.19;;;-145.17;73.83
32759;BME280;19125;52.360;9.974;2024-03-07T06:52:40;23051.19;;;-145.17;73.75
32759;BME280;19125;52.360;9.974;2024-03-07T06:55:06;22801.19;;;-145.17;74.05
32759;BME280;19125;52.360;9.974;2024-03-07T06:57:33;22051.38;;;-145.17;73.86
32759;BME280;19125;52.360;9.974;2024-03-07T06:59:59;21551.56;;;-145.17;74.14
32759;BME280;19125;52.360;9.974;2024-03-07T07:02:24;21301.69;;;-145.17;74.12
32759;BME280;19125;52.360;9.974;2024-03-07T07:04:52;21301.69;;;-145.17;74.03
32759;BME280;19125;52.360;9.974;2024-03-07T07:07:18;21301.69;;;-145.17;73.81
32759;BME280;19125;52.360;9.974;2024-03-07T07:09:44;21051.81;;;-145.17;74.15
32759;BME280;19125;52.360;9.974;2024-03-07T07:12:09;20801.97;;;-145.17;74.08
32759;BME280;19125;52.360;9.974;2024-03-07T07:14:35;20552.13;;;-145.17;74.03
32759;BME280;19125;52.360;9.974;2024-03-07T07:17:01;20302.31;;;-145.17;73.87
32759;BME280;19125;52.360;9.974;2024-03-07T07:19:26;20052.50;;;-145.17;74.27
32759;BME280;19125;52.360;9.974;2024-03-07T07:21:52;19552.97;;;-145.17;74.01
32759;BME280;19125;52.360;9.974;2024-03-07T07:24:20;18803.75;;;-145.17;74.29
32759;BME280;19125;52.360;9.974;2024-03-07T07:26:52;18304.34;;;-145.17;74.13
32759;BME280;19125;52.360;9.974;2024-03-07T07:29:17;18054.69;;;-145.17;74.08
32759;BME280;19125;52.360;9.974;2024-03-07T07:31:43;17555.38;;;-145.17;74.16
32759;BME280;19125;52.360;9.974;2024-03-07T07:34:10;17555.38;;;-145.17;74.28
32759;BME280;19125;52.360;9.974;2024-03-07T07:36:36;17056.16;;;-145.17;74.13
32759;BME280;19125;52.360;9.974;2024-03-07T07:39:01;16806.56;;;-145.17;74.51
32759;BME280;19125;52.360;9.974;2024-03-07T07:41:28;16556.97;;;-145.17;74.59
32759;BME280;19125;52.360;9.974;2024-03-07T07:43:53;16057.88;;;-145.17;74.48
32759;BME280;19125;52.360;9.974;2024-03-07T07:46:19;16057.88;;;-145.17;74.23
32759;BME280;19125;52.360;9.974;2024-03-07T07:48:45;16057.88;;;-145.17;74.18
32759;BME280;19125;52.360;9.974;2024-03-07T07:51:10;15558.84;;;-145.17;74.51
32759;BME280;19125;52.360;9.974;2024-03-07T07:53:35;15309.34;;;-145.17;74.30
32759;BME280;19125;52.360;9.974;2024-03-07T07:56:01;14810.38;;;-145.17;74.41
32759;BME280;19125;52.360;9.974;2024-03-07T07:58:26;14560.94;;;-145.17;74.50
32759;BME280;19125;52.360;9.974;2024-03-07T08:00:52;14560.94;;;-145.17;74.42
32759;BME280;19125;52.360;9.974;2024-03-07T08:03:17;14311.50;;;-145.17;74.30
32759;BME280;19125;52.360;9.974;2024-03-07T08:05:43;14062.09;;;-145.17;74.49
32759;BME280;19125;52.360;9.974;2024-03-07T08:08:10;13812.69;;;-145.17;74.39
32759;BME280;19125;52.360;9.974;2024-03-07T08:10:39;13563.31;;;-145.17;74.59
32759;BME280;19125;52.360;9.974;2024-03-07T08:13:06;13812.69;;;-145.17;74.32
32759;BME280;19125;52.360;9.974;2024-03-07T08:15:31;14062.09;;;-145.17;74.54
32759;BME280;19125;52.360;9.974;2024-03-07T08:17:58;14311.50;;;-145.17;74.05
32759;BME280;19125;52.360;9.974;2024-03-07T08:20:26;14560.94;;;-145.17;74.14
32759;BME280;19125;52.360;9.974;2024-03-07T08:22:53;14810.38;;;-145.17;74.07
32759;BME280;19125;52.360;9.974;2024-03-07T08:25:21;15059.84;;;-145.17;74.07
32759;BME280;19125;52.360;9.974;2024-03-07T08:27:49;15808.34;;;-145.17;74.08
32759;BME280;19125;52.360;9.974;2024-03-07T08:30:15;16057.88;;;-145.17;74.19
32759;BME280;19125;52.360;9.974;2024-03-07T08:32:42;15808.34;;;-145.17;74.40
32759;BME280;19125;52.360;9.974;2024-03-07T08:35:08;15558.84;;;-145.17;74.07
32759;BME280;19125;52.360;9.974;2024-03-07T08:40:05;16057.88;;;-145.17;74.03
32759;BME280;19125;52.360;9.974;2024-03-07T08:42:40;16307.41;;;-145.17;73.76
32759;BME280;19125;52.360;9.974;2024-03-07T08:45:08;16556.97;;;-145.17;73.65
32759;BME280;19125;52.360;9.974;2024-03-07T08:47:36;16307.41;;;-145.17;73.81
32759;BME280;19125;52.360;9.974;2024-03-07T08:50:02;16806.56;;;-145.17;73.35
32759;BME280;19125;52.360;9.974;2024-03-07T08:52:35;19303.19;;;-145.17;72.82
32759;BME280;19125;52.360;9.974;2024-03-07T08:55:02;23801.22;;;-145.17;72.39
32759;BME280;19125;52.360;9.974;2024-03-07T08:57:27;29806.63;;;-145.17;71.52
32759;BME280;19125;52.360;9.974;2024-03-07T08:59:53;36072.09;;;-145.17;70.85
32759;BME280;19125;52.360;9.974;2024-03-07T09:02:18;41342.81;;;-145.17;70.35
32759;BME280;19125;52.360;9.974;2024-03-07T09:04:43;46117.66;;;-145.17;70.29
32759;BME280;19125;52.360;9.974;2024-03-07T09:07:09;50898.28;;;-145.17;70.05
32759;BME280;19125;52.360;9.974;2024-03-07T09:09:35;58206.19;;;-145.17;69.53
32759;BME280;19125;52.360;9.974;2024-03-07T09:12:00;66033.00;;;-145.17;69.06
32759;BME280;19125;52.360;9.974;2024-03-07T09:14:29;72107.00;;;-145.17;68.63
32759;BME280;19125;52.360;9.974;2024-03-07T09:16:55;75755.03;;;-145.17;68.33
32759;BME280;19125;52.360;9.974;2024-03-07T09:19:20;78461.56;;;-145.17;68.65
32759;BME280;19125;52.360;9.974;2024-03-07T09:21:50;80305.88;;;-145.17;68.54
32759;BME280;19125;52.360;9.974;2024-03-07T09:24:15;81132.25;;;-145.17;68.30
32759;BME280;19125;52.360;9.974;2024-03-07T09:26:41;82010.31;;;-145.17;68.23
32759;BME280;19125;52.360;9.974;2024-03-07T09:29:06;82954.00;;;-145.17;68.29
32759;BME280;19125;52.360;9.974;2024-03-07T09:31:32;83659.94;;;-145.17;68.09
32759;BME280;19125;52.360;9.974;2024-03-07T09:33:58;84302.53;;;-145.17;67.96
32759;BME280;19125;52.360;9.974;2024-03-07T09:36:24;84635.78;;;-145.17;68.20
32759;BME280;19125;52.360;9.974;2024-03-07T09:38:49;84691.31;;;-145.17;67.91
32759;BME280;19125;52.360;9.974;2024-03-07T09:41:15;84570.31;;;-145.17;68.07
32759;BME280;19125;52.360;9.974;2024-03-07T09:43:43;84506.84;;;-145.17;68.28
32759;BME280;19125;52.360;9.974;2024-03-07T09:46:12;84296.59;;;-145.17;68.31
32759;BME280;19125;52.360;9.974;2024-03-07T09:48:37;83939.59;;;-145.17;68.54
32759;BME280;19125;52.360;9.974;2024-03-07T09:51:04;83691.69;;;-145.17;68.63
32759;BME280;19125;52.360;9.974;2024-03-07T09:53:30;83334.72;;;-145.17;68.60
32759;BME280;19125;52.360;9.974;2024-03-07T09:55:56;83166.19;;;-145.17;68.60
32759;BME280;19125;52.360;9.974;2024-03-07T09:58:22;83025.41;;;-145.17;68.42
32759;BME280;19125;52.360;9.974;2024-03-07T10:00:51;83021.44;;;-145.17;68.66
32759;BME280;19125;52.360;9.974;2024-03-07T10:03:20;82971.84;;;-145.17;68.50
32759;BME280;19125;52.360;9.974;2024-03-07T10:05:47;82942.13;;;-145.17;68.39
32759;BME280;19125;52.360;9.974;2024-03-07T10:08:12;83017.47;;;-145.17;68.53
32759;BME280;19125;52.360;9.974;2024-03-07T10:10:39;82995.66;;;-145.17;68.62
32759;BME280;19125;52.360;9.974;2024-03-07T10:13:04;83134.44;;;-145.17;68.47
32759;BME280;19125;52.360;9.974;2024-03-07T10:15:32;83364.47;;;-145.17;68.65
32759;BME280;19125;52.360;9.974;2024-03-07T10:17:58;83558.81;;;-145.17;68.11
32759;BME280;19125;52.360;9.974;2024-03-07T10:20:25;83842.41;;;-145.17;68.44
32759;BME280;19125;52.360;9.974;2024-03-07T10:22:51;84498.91;;;-145.17;67.99
32759;BME280;19125;52.360;9.974;2024-03-07T10:25:22;85647.53;;;-145.17;67.72
32759;BME280;19125;52.360;9.974;2024-03-07T10:27:50;86677.44;;;-145.17;67.17
32759;BME280;19125;52.360;9.974;2024-03-07T10:30:16;87147.81;;;-145.17;66.87
32759;BME280;19125;52.360;9.974;2024-03-07T10:32:51;87810.81;;;-145.17;66.06
32759;BME280;19125;52.360;9.974;2024-03-07T10:35:22;88096.69;;;-145.17;65.53
32759;BME280;19125;52.360;9.974;2024-03-07T10:37:53;88158.22;;;-145.17;64.57
32759;BME280;19125;52.360;9.974;2024-03-07T10:40:19;88104.63;;;-145.17;63.96
32759;BME280;19125;52.360;9.974;2024-03-07T10:42:47;88035.13;;;-145.17;63.27
32759;BME280;19125;52.360;9.974;2024-03-07T10:45:20;87949.78;;;-145.17;62.55
32759;BME280;19125;52.360;9.974;2024-03-07T10:47:56;87842.56;;;-145.17;61.77
32759;BME280;19125;52.360;9.974;2024-03-07T10:53:08;87707.59;;;-145.17;60.49
32759;BME280;19125;52.360;9.974;2024-03-07T10:56:29;87588.47;;;-145.17;59.96
32759;BME280;19125;52.360;9.974;2024-03-07T11:01:04;87451.50;;;-145.17;58.95
32759;BME280;19125;52.360;9.974;2024-03-07T11:03:34;87401.88;;;-145.17;58.62
32759;BME280;19125;52.360;9.974;2024-03-07T11:06:01;87328.44;;;-145.17;57.39
32759;BME280;19125;52.360;9.974;2024-03-07T11:08:34;87249.03;;;-145.17;56.96
32759;BME280;19125;52.360;9.974;2024-03-07T11:11:00;87189.50;;;-145.17;56.04
32759;BME280;19125;52.360;9.974;2024-03-07T11:13:26;87141.84;;;-145.17;55.62
32759;BME280;19125;52.360;9.974;2024-03-07T11:15:54;87112.09;;;-145.17;54.97
32759;BME280;19125;52.360;9.974;2024-03-07T11:18:23;87118.03;;;-145.17;54.61
32759;BME280;19125;52.360;9.974;2024-03-07T11:20:49;87070.41;;;-145.17;54.61
32759;BME280;19125;52.360;9.974;2024-03-07T11:23:31;87056.50;;;-145.17;54.23
32759;BME280;19125;52.360;9.974;2024-03-07T11:26:08;87068.41;;;-145.17;54.14
32759;BME280;19125;52.360;9.974;2024-03-07T11:28:35;87072.38;;;-145.17;53.93
32759;BME280;19125;52.360;9.974;2024-03-07T11:31:14;87068.41;;;-145.17;54.20
32759;BME280;19125;52.360;9.974;2024-03-07T11:33:41;87094.22;;;-145.17;54.13
32759;BME280;19125;52.360;9.974;2024-03-07T11:36:10;87068.41;;;-145.17;53.61
32759;BME280;19125;52.360;9.974;2024-03-07T11:38:48;87030.72;;;-145.17;53.16
32759;BME280;19125;52.360;9.974;2024-03-07T11:41:13;87006.88;;;-145.17;52.67
32759;BME280;19125;52.360;9.974;2024-03-07T11:43:40;87000.94;;;-145.17;52.50
32759;BME280;19125;52.360;9.974;2024-03-07T11:46:07;87018.81;;;-145.17;52.10
32759;BME280;19125;52.360;9.974;2024-03-07T11:48:39;86981.09;;;-145.17;51.44
32759;BME280;19125;52.360;9.974;2024-03-07T11:51:06;86929.47;;;-145.17;50.57
32759;BME280;19125;52.360;9.974;2024-03-07T11:53:36;86903.69;;;-145.17;49.96
32759;BME280;19125;52.360;9.974;2024-03-07T11:56:03;86865.97;;;-145.17;50.10
32759;BME280;19125;52.360;9.974;2024-03-07T11:58:37;86822.31;;;-145.17;49.94
32759;BME280;19125;52.360;9.974;2024-03-07T12:01:05;86830.25;;;-145.17;48.51
32759;BME280;19125;52.360;9.974;2024-03-07T12:03:36;86838.19;;;-145.17;47.97
32759;BME280;19125;52.360;9.974;2024-03-07T12:06:01;86854.06;;;-145.17;47.97
32759;BME280;19125;52.360;9.974;2024-03-07T12:08:27;86909.63;;;-145.17;48.12
32759;BME280;19125;52.360;9.974;2024-03-07T12:10:53;86877.88;;;-145.17;48.50
32759;BME280;19125;52.360;9.974;2024-03-07T12:13:21;86885.81;;;-145.17;49.02
32759;BME280;19125;52.360;9.974;2024-03-07T12:15:48;86854.06;;;-145.17;49.18
32759;BME280;19125;52.360;9.974;2024-03-07T12:18:17;86907.66;;;-145.17;48.78
32759;BME280;19125;52.360;9.974;2024-03-07T12:20:44;86877.88;;;-145.17;48.71
32759;BME280;19125;52.360;9.974;2024-03-07T12:23:16;86854.06;;;-145.17;48.32
32759;BME280;19125;52.360;9.974;2024-03-07T12:25:45;86953.31;;;-145.17;48.33
32759;BME280;19125;52.360;9.974;2024-03-07T12:28:12;86871.94;;;-145.17;48.16
32759;BME280;19125;52.360;9.974;2024-03-07T12:30:53;86844.13;;;-145.17;48.11
32759;BME280;19125;52.360;9.974;2024-03-07T12:33:20;86862.00;;;-145.17;47.99
32759;BME280;19125;52.360;9.974;2024-03-07T12:35:51;86877.88;;;-145.17;47.85
32759;BME280;19125;52.360;9.974;2024-03-07T12:38:18;86885.81;;;-145.17;48.19
32759;BME280;19125;52.360;9.974;2024-03-07T12:40:44;86897.72;;;-145.17;48.69
32759;BME280;19125;52.360;9.974;2024-03-07T12:43:19;86903.69;;;-145.17;48.71
32759;BME280;19125;52.360;9.974;2024-03-07T12:45:49;86887.81;;;-145.17;48.47
32759;BME280;19125;52.360;9.974;2024-03-07T12:48:20;86885.81;;;-145.17;48.27
32759;BME280;19125;52.360;9.974;2024-03-07T12:50:49;86862.00;;;-145.17;48.20